McKinley Park, Alaska
Current Conditions -  °F | °C
As of 12:36 AM on Tuesday 21 Oct 2014 (Local Time) from PAIN Reporting Station
Scattered Clouds Scattered Clouds  
Wind Chill: 34°   Ceiling: Unl
Heat Index: 34°   Visibility: 10mi
Dew Point: 28°   Wind: 3mph
Humidity: 81%   Direction: 170°S
Pressure: 29.2"   Gusts: NA
Location:  63.73°N, 148.91°W
Report Text: PAIN 210836Z AUTO 17003KT 10SM SCT100 01/M02 A2920 RMK AO1
Loading
Personal Weather Stations






























Interactive Weather Map New forecast layout! Learn more

10-Day Weather Forecast

Advertisements
Track Severe Weather on mobile